NCAR-RAP Real-Time Weather Data

Output produced by METARs form (12 August 2020  18:34 UTC)
found at http://weather.rap.ucar.edu/surface/
 
KEVV 121754Z 09003KT 10SM FEW021 29/22 A3005 RMK AO2 SLP170 60000 T02890217 10289 20233 58007
KEVV 121654Z 00000KT 10SM CLR 27/21 A3005 RMK AO2 RAE07 SLP172 P0000 T02720211
KEVV 121554Z 00000KT 10SM -RA FEW040 26/22 A3007 RMK AO2 SLP177 P0000 T02560217 $
KEVV 121454Z 06003KT 10SM -RA FEW037 BKN090 OVC120 25/22 A3007 RMK AO2 RAB1355 SLP177 P0000 60000 T02500222 51007 $
KEVV 121354Z 00000KT 8SM FEW048 BKN100 OVC110 24/22 A3006 RMK AO2 RAB26E53 SLP175 P0000 T02440217 $
KEVV 121254Z 00000KT 5SM BR FEW110 24/22 A3006 RMK AO2 SLP176 T02390217 $
KEVV 121154Z 05003KT 4SM BR FEW100 23/21 A3005 RMK AO2 SLP170 T02330211 10239 20228 52010 $
KEVV 121054Z 00000KT 7SM BKN038 23/22 A3004 RMK AO2 SLP167 T02330217 $
KEVV 120954Z AUTO 00000KT 7SM CLR 23/22 A3003 RMK AO2 SLP163 T02330217 TSNO $
KEVV 120854Z AUTO 00000KT 7SM CLR 23/22 A3002 RMK AO2 SLP159 T02330217 51002 $
KEVV 120754Z AUTO 00000KT 7SM CLR 23/22 A3001 RMK AO2 SLP159 T02330217 $
KEVV 120654Z AUTO 00000KT 10SM CLR 24/22 A3001 RMK AO2 SLP160 T02390217 $
KEVV 120554Z AUTO 00000KT 10SM SCT070 23/22 A3001 RMK AO2 SLP158 T02330217 10278 20233 403060206 50002 $
KEVV 120454Z AUTO 00000KT 10SM CLR 24/22 A3002 RMK AO2 SLP160 T02390217 $
KEVV 120354Z AUTO 00000KT 10SM CLR 24/22 A3002 RMK AO2 SLP162 T02440217 $
KEVV 120254Z 00000KT 10SM CLR 24/22 A3000 RMK AO2 SLP156 T02440217 53013 $
KEVV 120154Z 00000KT 10SM CLR 26/22 A2999 RMK AO2 SLP152 T02560217 $
KEVV 120054Z 00000KT 10SM CLR 27/22 A2998 RMK AO2 SLP146 T02670217 $
KEVV 112354Z 33003KT 10SM CLR 28/21 A2997 RMK AO2 SLP143 T02780211 10306 20272 58008 $
KEVV 112254Z 27004KT 10SM CLR 28/21 A2998 RMK AO2 SLP146 T02830211 $
KEVV 112154Z VRB05KT 10SM BKN031 29/21 A2999 RMK AO2 SLP151 T02940211 $
KEVV 112101Z VRB05KT 10SM SCT031 30/21 A2999 RMK AO2 T03000211 $
KEVV 112054Z VRB03KT 10SM BKN029 31/21 A2999 RMK AO2 SLP151 T03060211 55008 $
KEVV 111954Z 23005KT 10SM SCT027 29/21 A3000 RMK AO2 SLP153 T02940211 $
KEVV 111942Z 00000KT 10SM SCT027 29/21 A3000 RMK AO2 T02940206 $
KEVV 111854Z 00000KT 10SM BKN024 28/21 A3001 RMK AO2 SLP159 T02780206 $
KEVV 111827Z VRB04KT 10SM BKN023 28/21 A3002 RMK AO2 T02830206 $
KEVV 111816Z 00000KT 10SM SCT023 28/20 A3002 RMK AO2 T02780200 $
KEVV 111754Z 00000KT 10SM BKN022 27/20 A3002 RMK AO2 SLP160 T02720200 10278 20211 58004 $
KEVV 111654Z 32005KT 10SM BKN018 26/21 A3003 RMK AO2 SLP164 T02610206 $
KEVV 111554Z VRB06KT 10SM BKN016 26/21 A3004 RMK AO2 SLP167 T02560206 $
KEVV 111454Z 26007KT 10SM BKN014 24/20 A3003 RMK AO2 SLP165 T02440200 52012 $
KEVV 111411Z VRB06KT 10SM BKN014 24/20 A3002 RMK AO2 T02440200 $
KEVV 111354Z 29006KT 10SM SCT012 24/20 A3002 RMK AO2 SLP161 T02390200 $
KEVV 111254Z 28003KT 10SM FEW100 23/19 A3001 RMK AO2 SLP157 T02280189 $
KEVV 111154Z 00000KT 10SM BKN100 21/19 A3000 RMK AO2 SLP153 60000 70014 T02110194 10217 20206 51013 $
KEVV 111054Z 00000KT 8SM CLR 21/19 A2999 RMK AO2 SLP151 T02060189 $
KEVV 110954Z AUTO 32004KT 10SM CLR 21/19 A2998 RMK AO2 SLP147 T02110194 $
KEVV 110854Z AUTO 03003KT 10SM CLR 21/19 A2996 RMK AO2 SLP139 60000 T02110194 51002 $
KEVV 110754Z AUTO 00000KT 10SM CLR 22/19 A2995 RMK AO2 SLP138 T02170194 $
KEVV 110654Z AUTO 16004KT 10SM CLR 22/19 A2996 RMK AO2 RAE0557 SLP139 P0000 T02170194 $
KEVV 110554Z AUTO 14006KT 10SM -RA CLR 22/19 A2995 RMK AO2 RAE15B32 SLP137 P0000 60014 T02170194 10294 20206 403390206 58037 $
KEVV 110454Z AUTO 10003KT 10SM -RA CLR 22/19 A3001 RMK AO2 RAB31 SLP157 P0000 T02170194 $
KEVV 110354Z AUTO 02007KT 10SM FEW110 21/19 A3004 RMK AO2 RAE51 TSB0259E14 SLP167 P0005 T02110189 $
KEVV 110329Z 03009KT 9SM RA SCT110 22/19 A3005 RMK AO2 LTG DSNT SE TSB0259E14 P0004 T02170189 $
KEVV 110320Z 02011G22KT 8SM VCTS -RA BKN110 22/18 A3005 RMK AO2 LTG DSNT N AND SE AND S TSB0259E14 P0002 T02170183 $
KEVV 110305Z 36009G22KT 10SM -TSRA SCT095 BKN120 22/19 A3005 RMK AO2 LTG DSNT SE AND S AND NW TSB0259 P0001 T02170189 $
KEVV 110254Z 34017G31KT 6SM VCTS RA FEW037 SCT065 BKN095 22/19 A3006 RMK AO2 PK WND 33035/0228 WSHFT 0218 LTG DSNT SE AND S RAB25 TSB18E33 SLP175 P0009 60009 T02170189 53052 $
KEVV 110233Z 34012G35KT 4SM VCTS RA FEW015 BKN065 OVC100 22/19 A3006 RMK AO2 PK WND 33035/0228 WSHFT 0218 LTG DSNT ALQDS RAB25 TSB18E33 P0001 T02220194 $
KEVV 110218Z 01010G18KT 10SM TS FEW043 SCT065 BKN100 24/19 A3002 RMK AO2 LTG DSNT SW-NW TSB18 PRESRR T02390194 $
KEVV 110154Z 02011G20KT 10SM FEW023 BKN043 OVC049 25/19 A2998 RMK AO2 PK WND 34032/0130 WSHFT 0128 LTG DSNT W AND NW SLP149 T02500194 $
KEVV 110054Z 24006KT 10SM CLR 29/23 A2995 RMK AO2 LTG DSNT N SLP135 T02940228 $
KEVV 102354Z 23010KT 10SM CLR 31/23 A2991 RMK AO2 SLP122 T03110228 10339 20311 56008 $
KEVV 102254Z 21012KT 10SM SCT039 32/23 A2991 RMK AO2 SLP123 T03220233 $
KEVV 102154Z 22011KT 10SM BKN039 33/24 A2992 RMK AO2 SLP124 T03330239 $
KEVV 102054Z 24010KT 10SM SCT037 33/23 A2993 RMK AO2 SLP130 T03330233 56024 $
KEVV 101954Z 23009KT 210V270 10SM SCT040 34/23 A2995 RMK AO2 SLP135 T03390228 $
KEVV 101854Z 22008KT 10SM CLR 33/24 A2997 RMK AO2 SLP144 T03330239 $